Latest Weather Observations for Nullarbor

IDS60801

Issued at 1:01 pm CST Wednesday 26 April 2017 (issued every 30 minutes, with the page automatically refreshed every 10 minutes)

About weather observations | Map of weather stations | Latest weather observations for SA | Other Formats
Station Details ID: 018106 Name: NULLARBOR Lat: -31.45 Lon: 130.90 Height: 64.0 m
Data from the previous 72 hours. | See also: Recent months at Nullarbor
Date/Time
CST
Temp
°C
App
Temp
°C
Dew
Point
°C
Rel
Hum
%
Delta-T
°C
Wind Press
QNH
hPa
Press
MSL
hPa
Rain since
9am
mm
Dir  Spd
km/h
Gust
km/h
Spd
kts
Gust
kts
26/01:00pm 17.8 13.5 9.2 57 4.5 S 22 30 12 16 1027.5 1027.4 0.0
26/12:30pm 17.8 13.2 9.7 59 4.3 SSE 24 30 13 16 1027.9 1027.8 0.0
26/12:00pm 17.8 14.0 9.9 60 4.2 S 20 28 11 15 1028.2 1028.1 0.0
26/11:30am 18.6 14.7 8.8 53 5.1 S 19 28 10 15 1028.1 1028.0 0.0
26/11:00am 18.0 14.5 8.6 54 4.9 S 17 26 9 14 1028.2 1028.1 0.0
26/10:30am 18.4 15.1 9.5 56 4.7 S 17 24 9 13 1028.1 1028.0 0.0
26/10:00am 17.5 13.5 8.4 55 4.7 S 19 26 10 14 1028.1 1028.0 0.0
26/09:30am 16.8 12.2 8.2 57 4.4 S 22 32 12 17 1027.9 1027.8 0.0
26/09:00am 15.5 11.6 9.4 67 3.1 S 20 24 11 13 1027.6 1027.5 3.4
26/08:30am 14.7 11.5 9.9 73 2.5 S 17 20 9 11 1027.3 1027.2 3.4
26/08:00am 14.2 11.7 11.0 81 1.7 S 15 20 8 11 1026.8 1026.6 3.4
26/07:30am 12.0 10.7 9.9 87 1.1 SW 7 9 4 5 1026.6 1026.4 3.4
26/07:00am 12.0 10.3 9.7 86 1.2 SW 9 9 5 5 1026.4 1026.2 3.4
26/06:30am 11.2 10.3 9.1 87 1.0 W 4 7 2 4 1026.3 1026.1 3.4
26/06:00am 11.4 9.5 9.0 85 1.2 SSW 9 13 5 7 1026.0 1025.8 3.4
26/05:30am 11.1 8.1 9.2 88 0.9 S 15 19 8 10 1025.6 1025.4 3.4
26/05:00am 11.9 9.5 10.1 89 0.9 SSW 13 19 7 10 1025.3 1025.1 3.4
26/04:30am 11.9 9.0 9.5 85 1.2 SW 15 15 8 8 1025.1 1024.9 3.4
26/04:00am 11.8 9.3 9.7 87 1.1 SW 13 17 7 9 1025.1 1024.9 3.4
26/03:30am 11.7 9.0 10.3 91 0.7 S 15 19 8 10 1025.0 1024.8 3.4
26/03:00am 11.7 9.4 10.3 91 0.7 SSW 13 15 7 8 1025.1 1024.9 3.4
26/02:30am 12.4 9.0 10.6 89 0.9 SSW 19 24 10 13 1025.1 1024.9 3.4
26/02:00am 13.0 9.9 11.6 91 0.7 SSW 19 24 10 13 1024.9 1024.7 3.4
26/01:30am 12.9 10.4 12.3 96 0.3 SW 17 20 9 11 1024.6 1024.4 3.4
26/01:00am 13.2 10.9 12.9 98 0.2 SW 17 19 9 10 1024.1 1023.9 3.4
26/12:30am 13.5 11.7 13.3 99 0.1 SW 15 19 8 10 1023.9 1023.7 3.2
26/12:04am 14.2 13.0 14.0 99 0.1 SW 13 17 7 9 1023.9 1023.7 3.2
26/12:00am 14.3 12.8 14.1 99 0.1 SW 15 24 8 13 1024.0 1023.8 3.2
 
Date/Time
CST
Temp
°C
App
Temp
°C
Dew
Point
°C
Rel
Hum
%
Delta-T
°C
Wind Press
QNH
hPa
Press
MSL
hPa
Rain since
9am
mm
Dir  Spd
km/h
Gust
km/h
Spd
kts
Gust
kts
25/11:53pm 14.4 12.2 14.4 100 0.0 WSW 19 32 10 17 1024.0 1023.8 3.2
25/11:30pm 13.8 12.5 13.6 99 0.1 WSW 13 17 7 9 1023.9 1023.7 3.0
25/11:00pm 14.2 13.0 14.0 99 0.1 SW 13 17 7 9 1024.1 1023.9 2.8
25/10:50pm 14.3 12.8 14.1 99 0.1 SW 15 20 8 11 1024.1 1023.9 2.8
25/10:30pm 14.8 11.7 14.6 99 0.1 SW 24 35 13 19 1024.2 1024.0 2.8
25/10:00pm 13.7 12.0 13.5 99 0.1 SW 15 22 8 12 1024.1 1023.9 2.6
25/09:30pm 12.8 11.9 12.6 99 0.1 WSW 9 13 5 7 1023.8 1023.6 2.6
25/09:00pm 13.4 12.3 13.2 99 0.1 WSW 11 13 6 7 1023.5 1023.3 2.6
25/08:30pm 14.0 12.7 13.8 99 0.1 WSW 13 17 7 9 1023.3 1023.1 2.6
25/08:00pm 14.8 14.2 14.6 99 0.1 W 11 17 6 9 1022.9 1022.8 2.6
25/07:30pm 15.0 14.8 14.8 99 0.1 W 9 9 5 5 1022.3 1022.2 2.6
25/07:14pm 15.0 14.5 14.8 99 0.1 WSW 11 19 6 10 1022.2 1022.1 2.6
25/07:00pm 15.0 12.9 14.8 99 0.1 SW 19 32 10 17 1022.1 1022.0 2.6
25/06:55pm 15.6 14.5 15.4 99 0.1 WSW 15 22 8 12 1022.1 1022.0 2.2
25/06:30pm 15.6 14.5 15.4 99 0.1 W 15 19 8 10 1021.6 1021.5 1.8
25/06:00pm 15.8 15.2 15.6 99 0.1 W 13 19 7 10 1021.6 1021.5 1.8
25/05:30pm 15.8 14.0 15.6 99 0.1 W 19 26 10 14 1021.4 1021.3 1.8
25/05:00pm 15.8 12.7 15.6 99 0.1 WSW 26 35 14 19 1021.3 1021.2 1.8
25/04:56pm 15.7 12.2 15.5 99 0.1 WSW 28 35 15 19 1021.3 1021.2 1.8
25/04:30pm 15.9 12.1 15.7 99 0.1 WSW 30 43 16 23 1021.1 1021.0 1.4
25/04:20pm 16.4 10.2 14.8 90 0.9 WSW 41 54 22 29 1020.9 1020.8 0.4
25/04:11pm 18.9 14.4 12.6 67 3.5 SW 28 46 15 25 1020.4 1020.3 0.2
25/04:00pm 18.8 14.6 12.5 67 3.5 SW 26 37 14 20 1020.4 1020.3 0.2
25/03:30pm 17.9 14.8 13.4 75 2.5 SW 22 33 12 18 1020.5 1020.4 0.2
25/03:00pm 17.6 15.4 14.9 84 1.6 SSW 20 30 11 16 1020.2 1020.1 0.2
25/02:30pm 18.0 13.7 13.1 73 2.8 WSW 28 41 15 22 1020.3 1020.2 0.0
25/02:00pm 19.8 15.4 11.6 59 4.5 WSW 26 37 14 20 1020.2 1020.1 0.0
25/01:30pm 20.4 15.9 11.3 56 5.0 WSW 26 37 14 20 1020.4 1020.3 0.0
25/01:00pm 20.1 16.3 11.1 56 4.9 WSW 22 30 12 16 1020.8 1020.7 0.0
25/12:30pm 20.2 16.0 11.1 56 5.0 WSW 24 35 13 19 1021.0 1020.9 0.0
25/12:00pm 20.0 15.8 11.0 56 4.9 SW 24 32 13 17 1021.4 1021.3 0.0
25/11:30am 19.3 16.7 12.1 63 4.0 WSW 17 24 9 13 1021.6 1021.5 0.0
25/11:00am 18.5 15.4 12.3 67 3.5 SW 20 28 11 15 1021.6 1021.5 0.0
25/10:30am 18.2 15.1 12.2 68 3.3 SW 20 32 11 17 1021.7 1021.6 0.0
25/10:00am 18.8 15.4 11.4 62 4.1 SW 20 30 11 16 1021.5 1021.4 0.0
25/09:30am 18.0 15.0 11.8 67 3.4 SW 19 24 10 13 1021.2 1021.1 0.0
25/09:00am 15.9 16.1 14.8 93 0.6 WSW 7 9 4 5 1021.1 1021.0 0.6
25/08:30am 13.6 13.0 13.4 99 0.1 W 9 11 5 6 1021.0 1020.9 0.6
25/08:00am 11.4 9.7 11.2 99 0.1 WNW 11 13 6 7 1020.5 1020.4 0.6
25/07:30am 10.8 8.9 10.6 99 0.1 W 11 15 6 8 1020.2 1020.1 0.6
25/07:00am 10.1 7.7 10.0 99 0.1 WNW 13 13 7 7 1019.9 1019.8 0.6
25/06:30am 10.2 7.8 10.1 99 0.1 WNW 13 13 7 7 1019.7 1019.6 0.6
25/06:00am 10.2 7.8 10.1 99 0.1 WNW 13 13 7 7 1019.8 1019.7 0.6
25/05:30am 10.7 9.2 10.5 99 0.1 NW 9 11 5 6 1019.5 1019.4 0.6
25/05:00am 11.1 9.3 10.9 99 0.1 WNW 11 13 6 7 1019.3 1019.2 0.6
25/04:30am 11.8 10.6 11.5 98 0.2 W 9 11 5 6 1019.1 1019.0 0.6
25/04:00am 12.9 11.5 12.3 96 0.3 WSW 11 13 6 7 1018.9 1018.8 0.6
25/03:30am 13.1 11.8 12.6 97 0.3 SW 11 13 6 7 1018.8 1018.7 0.6
25/03:00am 13.5 11.9 12.9 96 0.3 SW 13 15 7 8 1018.9 1018.8 0.6
25/02:30am 13.5 12.0 13.2 98 0.2 SW 13 15 7 8 1019.0 1018.9 0.6
25/02:00am 14.0 13.0 13.4 96 0.3 WSW 11 13 6 7 1019.2 1019.1 0.6
25/01:30am 14.8 13.8 14.5 98 0.2 SW 13 17 7 9 1019.3 1019.2 0.6
25/01:00am 15.5 14.8 15.3 99 0.1 SW 13 17 7 9 1019.4 1019.3 0.6
25/12:30am 15.3 14.9 15.3 100 0.0 WSW 11 15 6 8 1019.7 1019.6 0.6
25/12:00am 15.3 14.9 15.3 100 0.0 SW 11 15 6 8 1019.6 1019.5 0.6
 
Date/Time
CST
Temp
°C
App
Temp
°C
Dew
Point
°C
Rel
Hum
%
Delta-T
°C
Wind Press
QNH
hPa
Press
MSL
hPa
Rain since
9am
mm
Dir  Spd
km/h
Gust
km/h
Spd
kts
Gust
kts
24/11:41pm 15.5 14.8 15.5 100 0.0 SW 13 17 7 9 1019.8 1019.7 0.4
24/11:33pm 15.5 14.5 15.5 100 0.0 SW 15 19 8 10 1019.9 1019.8 0.4
24/11:30pm 15.6 14.6 15.6 100 0.0 SW 15 22 8 12 1019.9 1019.8 0.4
24/11:16pm 15.6 14.6 15.6 100 0.0 SW 15 20 8 11 1020.0 1019.9 0.4
24/11:00pm 15.6 14.2 15.6 100 0.0 SW 17 24 9 13 1020.0 1019.9 0.4
24/10:55pm 15.8 14.5 15.8 100 0.0 SSW 17 24 9 13 1020.0 1019.9 0.4
24/10:30pm 15.5 14.1 15.5 100 0.0 SSW 17 22 9 12 1019.8 1019.7 0.4
24/10:28pm 15.5 14.1 15.5 100 0.0 SSW 17 22 9 12 1019.8 1019.7 0.4
24/10:25pm 15.5 13.7 15.5 100 0.0 SSW 19 26 10 14 1019.8 1019.7 0.4
24/10:09pm 16.1 14.0 16.1 100 0.0 SSW 22 32 12 17 1019.7 1019.6 0.2
24/10:04pm 16.3 14.6 16.3 100 0.0 SSW 20 32 11 17 1019.7 1019.6 0.2
24/10:00pm 16.4 15.3 16.4 100 0.0 SSW 17 26 9 14 1019.8 1019.7 0.2
24/09:55pm 16.5 15.8 16.5 100 0.0 SSW 15 20 8 11 1019.8 1019.7 0.2
24/09:30pm 16.5 15.8 16.5 100 0.0 WSW 15 20 8 11 1019.6 1019.5 0.0
24/09:20pm 16.6 15.5 16.4 99 0.1 SW 17 20 9 11 1019.6 1019.5 0.0
24/09:00pm 15.9 16.1 15.7 99 0.1 SW 9 11 5 6 1019.5 1019.4 0.0
24/08:30pm 15.5 15.1 15.3 99 0.1 SW 11 11 6 6 1019.4 1019.3 0.0
24/08:00pm 16.2 16.5 16.0 99 0.1 SW 9 11 5 6 1019.2 1019.1 0.0
24/07:30pm 16.5 16.9 16.2 98 0.2 SSW 9 13 5 7 1019.1 1019.0 0.0
24/07:00pm 16.6 16.2 16.1 97 0.3 S 13 17 7 9 1019.0 1018.9 0.0
24/06:30pm 16.7 15.1 16.4 98 0.2 SSW 20 28 11 15 1018.7 1018.6 0.0
24/06:00pm 18.4 17.2 15.1 81 1.9 SSW 15 17 8 9 1018.3 1018.2 0.0
24/05:30pm 19.0 17.4 14.9 77 2.4 SSW 17 24 9 13 1018.0 1017.9 0.0
24/05:00pm 19.9 17.8 15.1 74 2.8 S 20 24 11 13 1017.6 1017.5 0.0
24/04:30pm 20.2 17.8 15.4 74 2.8 S 22 30 12 16 1017.4 1017.3 0.0
24/04:00pm 20.7 17.7 13.6 64 4.1 SW 22 30 12 16 1017.2 1017.1 0.0
24/03:30pm 21.1 18.7 13.8 63 4.2 SW 19 24 10 13 1017.2 1017.1 0.0
24/03:00pm 21.4 19.0 15.3 68 3.6 SSW 22 28 12 15 1017.1 1017.0 0.0
24/02:30pm 21.9 19.4 14.0 61 4.6 SSW 20 24 11 13 1017.1 1017.0 0.0
24/02:00pm 21.6 19.2 14.5 64 4.2 SSW 20 32 11 17 1017.1 1017.0 0.0
24/01:30pm 22.5 20.9 15.1 63 4.4 SSW 17 24 9 13 1017.5 1017.4 0.0
24/01:00pm 21.7 20.2 15.3 67 3.8 SSW 17 22 9 12 1017.9 1017.8 0.0
24/12:30pm 21.4 19.9 14.1 63 4.2 SW 15 20 8 11 1018.5 1018.4 0.0
24/12:00pm 21.1 20.0 14.3 65 4.0 SW 13 19 7 10 1019.0 1018.9 0.0
24/11:30am 20.8 20.7 14.9 69 3.5 SSW 9 15 5 8 1019.1 1019.0 0.0
24/11:00am 20.7 20.0 15.5 72 3.1 S 13 22 7 12 1019.3 1019.2 0.0
24/10:30am 20.3 22.1 17.5 84 1.7 SSW 4 9 2 5 1019.7 1019.6 0.0
24/10:00am 18.9 21.6 18.6 98 0.2 NNW 2 6 1 3 1019.9 1019.8 0.0
24/09:30am 17.9 20.7 17.9 100 0.0 CALM 0 0 0 0 1019.8 1019.7 0.0
24/09:00am 17.1 19.5 17.1 100 0.0 CALM 0 0 0 0 1019.6 1019.5 0.0
24/08:30am 16.4 17.4 16.4 100 0.0 SW 6 9 3 5 1019.4 1019.3 0.0
24/08:00am 15.4 16.0 15.4 100 0.0 WSW 6 7 3 4 1019.2 1019.1 0.0
24/07:30am 15.5 16.2 15.5 100 0.0 SW 6 7 3 4 1018.9 1018.8 0.0
24/07:00am 15.5 15.6 15.5 100 0.0 WSW 9 11 5 6 1019.0 1018.9 0.0
24/06:30am 15.5 16.0 15.5 100 0.0 SSW 7 9 4 5 1018.7 1018.6 0.0
24/06:00am 15.5 15.6 15.5 100 0.0 WSW 9 13 5 7 1018.8 1018.7 0.0
24/05:30am 15.4 15.8 15.4 100 0.0 SW 7 9 4 5 1018.6 1018.5 0.0
24/05:00am 15.3 16.7 15.3 100 0.0 SSW 2 6 1 3 1018.7 1018.6 0.0
24/04:30am 15.2 15.6 15.2 100 0.0 SW 7 9 4 5 1018.6 1018.5 0.0
24/04:00am 15.2 15.2 15.2 100 0.0 WSW 9 11 5 6 1019.0 1018.9 0.0
24/03:30am 15.2 15.5 15.0 99 0.1 WSW 7 11 4 6 1019.2 1019.1 0.0
24/03:00am 15.2 15.5 15.0 99 0.1 W 7 9 4 5 1019.0 1018.9 0.0
24/02:30am 15.5 17.2 15.3 99 0.1 CALM 0 0 0 0 1019.5 1019.4 0.0
24/02:00am 15.4 15.8 15.2 99 0.1 ESE 7 7 4 4 1019.4 1019.3 0.0
24/01:30am 15.6 16.6 15.4 99 0.1 SW 4 6 2 3 1019.7 1019.6 0.0
24/01:00am 15.8 16.3 15.6 99 0.1 SSW 7 7 4 4 1020.1 1020.0 0.0
24/12:30am 15.6 15.7 15.4 99 0.1 SSE 9 11 5 6 1020.0 1019.9 0.0
24/12:00am 15.9 16.1 15.7 99 0.1 SE 9 11 5 6 1020.4 1020.3 0.0
 
Date/Time
CST
Temp
°C
App
Temp
°C
Dew
Point
°C
Rel
Hum
%
Delta-T
°C
Wind Press
QNH
hPa
Press
MSL
hPa
Rain since
9am
mm
Dir  Spd
km/h
Gust
km/h
Spd
kts
Gust
kts
23/11:30pm 16.1 16.7 15.9 99 0.1 SE 7 9 4 5 1020.9 1020.8 0.0
23/11:00pm 16.0 16.2 15.7 98 0.2 SSE 9 9 5 5 1021.1 1021.0 0.0
23/10:30pm 16.0 15.7 15.4 96 0.3 SSE 11 13 6 7 1021.2 1021.1 0.0
23/10:00pm 16.5 16.2 15.4 93 0.6 SSE 11 13 6 7 1021.2 1021.1 0.0
23/09:30pm 17.0 17.3 15.9 93 0.6 S 9 11 5 6 1021.4 1021.3 0.0
23/09:00pm 17.0 16.8 15.7 92 0.8 S 11 13 6 7 1021.4 1021.3 0.0
23/08:30pm 17.0 16.7 15.5 91 0.9 S 11 13 6 7 1021.4 1021.3 0.0
23/08:00pm 16.9 16.5 15.2 90 1.0 SSE 11 13 6 7 1021.2 1021.1 0.0
23/07:30pm 16.9 16.5 15.1 89 1.0 SSE 11 13 6 7 1021.0 1020.9 0.0
23/07:00pm 16.7 15.8 14.9 89 1.0 SSE 13 17 7 9 1020.9 1020.8 0.0
23/06:30pm 17.2 16.2 14.5 84 1.6 SSE 13 15 7 8 1020.7 1020.6 0.0
23/06:00pm 18.2 16.5 14.7 80 2.0 SSE 17 19 9 10 1020.5 1020.4 0.0
23/05:30pm 18.8 16.4 14.5 76 2.5 SSE 20 22 11 12 1020.4 1020.3 0.0
23/05:00pm 19.4 17.0 14.4 73 2.9 SSE 20 26 11 14 1020.2 1020.1 0.0
23/04:30pm 19.6 17.3 14.6 73 2.9 SSE 20 26 11 14 1020.0 1019.9 0.0
23/04:00pm 20.0 18.5 15.4 75 2.7 SSE 17 24 9 13 1020.1 1020.0 0.0
23/03:30pm 20.4 18.6 15.4 73 3.0 SSE 19 24 10 13 1020.2 1020.1 0.0
23/03:00pm 21.1 19.6 15.2 69 3.5 SSE 17 24 9 13 1020.3 1020.2 0.0
23/02:30pm 21.0 19.4 15.1 69 3.5 SSE 17 20 9 11 1020.6 1020.5 0.0
23/02:00pm 20.7 19.7 14.6 68 3.6 SSE 13 20 7 11 1020.8 1020.7 0.0
23/01:30pm 20.8 19.1 14.7 68 3.6 SE 17 24 9 13 1020.9 1020.8 0.0

Other Formats:

Comma delimited format used in spreadsheet applications
http://www.bom.gov.au/fwo/IDS60801/IDS60801.94651.axf

JavaScript Object Notation format (JSON) in row-major order
http://www.bom.gov.au/fwo/IDS60801/IDS60801.94651.json